Airfield :
LOGIN :

Register | Disclaimer

   EN    FR    IT 

 










Legend :    VFR   Marginal VFR   IFR   Intensive IFR   Very Intensive IFR
Visi :
Ceiling :
>= 8 km
>= 3000ft
5 to 8 km
1000 to 3000 ft
1500m to 5 km
500 to 1000 ft
800 to 1500m
200 to 500 ft
< 800m
< 200 ft
Symbols :   Thunderstorms  Fog  Heavy snow  Heavy precipitations  Wind > 20 kt
SIGMETs :     Misc.  Thunderstorms  Icing  Turbulence  Mountain Waves  Volcanic Ashes






- Airport Elevation : 26 ft
- IATA code : GLA


EGPF - Glasgow

CURRENT METAR :
  • 161820Z AUTO 22027G40KT 9999 SCT040 BKN046 06/02 Q0976

EXPIRED METARs :
  • 161750Z AUTO 21023G35KT 9999 SCT028 SCT036 BKN045 05/03 Q0975
  • 161720Z 21026G37KT 9999 FEW028 BKN048 05/03 Q0974
  • 161650Z 22026G37KT 9999 SCT018 BKN028 BKN038 05/03 Q0974
  • 161620Z 23031KT 7000 -SHRA BKN017TCU BKN027 OVC045 05/03 Q0974
  • 161550Z AUTO 21033G46KT 6000 -RA BKN024/// OVC035/// //////TCU 06/03 Q0973

TAF TAF EGPF
Valid from the 16 at 18:00 until the 17 at 18:00 UTC


161657Z 1618/1718 22024G40KT 9999 SCT030
TEMPO 1618/1718 7000 SHRA BKN014CB
PROB40
TEMPO 1621/1703 4000 +SHRA
BECMG 1700/1703 25015KT
TEMPO 1709/1718 26018G32KT
ATIS : +44 141 887 7449



MET'MAP, your aeronautical weather chart ! - Copyright ORBIFLY December 2007 - Disclaimer

ORBIFLY MET'MAP TEAM :

Programming & Development : Alexandra Zaïnal
Concept & original design : Baudouin d'Aumeries
Assistance for programming : Marc-Olivier Méhu
Technical & hardware support : Manuel Goepfert

Contact : metmap@orbifly.com




SOURCES & CREDITS :

   NOAA